Time;durP1;ratioP1;P1;durP2;ratioP2;P2;SDS_P1;SDS_P2;PMS_P1;PMS_P2;Temp;Humidity;BMP_temperature;BMP_pressure;BME280_temperature;BME280_humidity;BME280_pressure;Samples;Min_cycle;Max_cycle;Signal;HPM_P1;HPM_P2
2024/02/10 00:00:40;;;;;;;14.57;6.40;;;;;;;9.53;100.00;93719.56;4973484;28;20227;-69
2024/02/10 00:03:07;;;;;;;16.17;6.17;;;;;;;9.88;100.00;93715.81;4974399;28;20211;-68
2024/02/10 00:05:34;;;;;;;12.67;6.20;;;;;;;9.90;100.00;93708.47;4973851;28;21038;-69
2024/02/10 00:08:02;;;;;;;15.93;7.43;;;;;;;9.77;100.00;93698.22;4975185;28;20203;-69
2024/02/10 00:10:30;;;;;;;14.00;6.20;;;;;;;9.97;100.00;93712.63;4974160;28;20303;-69
2024/02/10 00:12:59;;;;;;;12.17;6.20;;;;;;;10.05;100.00;93701.72;4973594;28;20611;-69
2024/02/10 00:15:26;;;;;;;13.57;6.00;;;;;;;10.01;100.00;93682.16;4973953;28;20204;-69
2024/02/10 00:17:53;;;;;;;12.20;6.07;;;;;;;9.97;100.00;93683.69;4974828;28;20207;-69
2024/02/10 00:20:23;;;;;;;17.07;6.40;;;;;;;9.79;100.00;93694.34;4973227;28;20249;-69
2024/02/10 00:22:50;;;;;;;12.13;6.23;;;;;;;9.86;100.00;93697.66;4973922;28;20281;-68
2024/02/10 00:25:16;;;;;;;12.63;5.93;;;;;;;9.61;100.00;93720.00;4973878;28;20623;-69
2024/02/10 00:27:46;;;;;;;15.97;6.67;;;;;;;9.88;100.00;93711.34;4974255;28;20215;-69
2024/02/10 00:30:13;;;;;;;16.73;7.10;;;;;;;10.02;100.00;93715.34;4973195;28;20231;-69
2024/02/10 00:32:40;;;;;;;11.97;6.07;;;;;;;9.95;100.00;93708.59;4974144;28;20207;-68
2024/02/10 00:35:07;;;;;;;14.27;6.17;;;;;;;9.88;100.00;93724.50;4973399;28;20681;-69
2024/02/10 00:37:33;;;;;;;18.17;7.53;;;;;;;9.92;100.00;93724.84;4973982;28;20207;-68
2024/02/10 00:40:01;;;;;;;14.27;6.97;;;;;;;9.99;100.00;93721.09;4973885;28;20239;-69
2024/02/10 00:42:28;;;;;;;15.73;6.47;;;;;;;9.97;100.00;93738.13;4974379;28;20311;-69
2024/02/10 00:44:59;;;;;;;16.50;7.00;;;;;;;10.04;100.00;93729.06;4974692;28;20212;-69
2024/02/10 00:47:26;;;;;;;16.53;7.03;;;;;;;9.89;100.00;93751.59;4974057;28;20208;-68
2024/02/10 00:49:53;;;;;;;13.77;6.87;;;;;;;9.81;100.00;93731.75;4973577;28;20245;-69
2024/02/10 00:52:20;;;;;;;13.93;6.60;;;;;;;9.79;100.00;93718.00;4973806;28;20203;-69
2024/02/10 00:54:46;;;;;;;13.00;6.60;;;;;;;9.89;100.00;93717.41;4976134;28;20208;-69
2024/02/10 00:57:13;;;;;;;13.10;6.20;;;;;;;9.70;100.00;93711.50;4977526;28;20203;-69
2024/02/10 00:59:41;;;;;;;14.30;7.07;;;;;;;9.71;100.00;93697.34;4976820;28;20227;-69
2024/02/10 01:02:09;;;;;;;12.73;6.00;;;;;;;9.70;100.00;93705.47;4977573;28;20214;-69
2024/02/10 01:04:35;;;;;;;19.97;5.90;;;;;;;9.57;100.00;93691.78;4976746;28;20210;-69
2024/02/10 01:07:02;;;;;;;17.83;6.83;;;;;;;9.54;100.00;93684.38;4976666;28;20207;-69
2024/02/10 01:09:29;;;;;;;13.47;6.87;;;;;;;9.53;100.00;93686.16;4976713;28;20195;-69
2024/02/10 01:11:55;;;;;;;12.67;6.50;;;;;;;9.49;100.00;93682.41;4977127;28;20309;-69
2024/02/10 01:14:29;;;;;;;13.47;6.30;;;;;;;9.49;100.00;93681.63;4976791;28;20211;-69
2024/02/10 01:16:57;;;;;;;15.00;6.07;;;;;;;9.30;100.00;93677.53;4977683;28;20678;-69
2024/02/10 01:19:26;;;;;;;16.20;7.03;;;;;;;9.35;100.00;93675.03;4975751;28;20228;-69
2024/02/10 01:21:54;;;;;;;9.50;5.10;;;;;;;9.34;100.00;93665.53;4976022;28;20839;-69
2024/02/10 01:24:21;;;;;;;13.60;6.17;;;;;;;9.29;100.00;93668.88;4977959;28;20238;-68
2024/02/10 01:26:49;;;;;;;14.57;6.60;;;;;;;9.22;100.00;93659.50;4976917;28;20222;-69
2024/02/10 01:29:17;;;;;;;12.07;5.73;;;;;;;9.24;100.00;93660.88;4976829;28;20311;-69
2024/02/10 01:31:43;;;;;;;14.37;6.63;;;;;;;9.28;100.00;93663.84;4976608;28;20322;-68
2024/02/10 01:34:10;;;;;;;10.63;5.87;;;;;;;9.37;100.00;93654.56;4976632;28;20211;-69
2024/02/10 01:36:37;;;;;;;12.17;6.40;;;;;;;9.46;100.00;93661.06;4976478;28;20203;-69
2024/02/10 01:39:04;;;;;;;9.87;5.30;;;;;;;9.35;100.00;93649.53;4977295;28;20211;-68
2024/02/10 01:41:30;;;;;;;13.57;5.83;;;;;;;9.37;100.00;93652.75;4975595;28;20748;-69
2024/02/10 01:43:58;;;;;;;15.83;6.03;;;;;;;9.42;100.00;93654.66;4977029;28;20218;-69
2024/02/10 01:46:26;;;;;;;10.80;6.10;;;;;;;9.26;100.00;93660.63;4976190;28;20237;-69
2024/02/10 01:48:55;;;;;;;21.83;6.73;;;;;;;9.41;100.00;93655.72;4976367;28;20211;-69
2024/02/10 01:51:23;;;;;;;11.47;6.20;;;;;;;9.19;100.00;93654.72;4976330;28;20618;-69
2024/02/10 01:53:52;;;;;;;15.87;7.00;;;;;;;9.36;100.00;93658.22;4975929;28;20203;-69
2024/02/10 01:56:19;;;;;;;10.67;6.00;;;;;;;9.18;100.00;93653.13;4977382;28;20211;-69
2024/02/10 01:58:47;;;;;;;12.93;6.03;;;;;;;9.16;100.00;93660.41;4976267;28;20214;-68
2024/02/10 02:01:15;;;;;;;13.90;6.47;;;;;;;9.06;100.00;93657.56;4975955;28;20235;-69
2024/02/10 02:03:43;;;;;;;12.47;5.87;;;;;;;9.16;100.00;93663.03;4975953;28;20207;-69
2024/02/10 02:06:11;;;;;;;13.30;6.33;;;;;;;9.23;100.00;93656.66;4976534;28;20253;-69
2024/02/10 02:08:38;;;;;;;11.53;5.77;;;;;;;9.05;100.00;93655.19;4975678;28;20730;-69
2024/02/10 02:11:06;;;;;;;12.27;5.90;;;;;;;9.20;100.00;93661.56;4975592;28;20223;-69
2024/02/10 02:13:32;;;;;;;13.70;5.83;;;;;;;9.08;100.00;93662.63;4976258;28;20200;-68
2024/02/10 02:16:00;;;;;;;12.70;6.23;;;;;;;9.15;100.00;93661.44;4976210;28;20874;-68
2024/02/10 02:18:27;;;;;;;10.87;6.00;;;;;;;9.17;100.00;93659.41;4976416;28;20298;-68
2024/02/10 02:20:54;;;;;;;11.17;5.57;;;;;;;9.11;100.00;93663.75;4975154;28;20250;-69
2024/02/10 02:23:23;;;;;;;13.30;5.83;;;;;;;9.24;100.00;93662.69;4976089;28;20226;-69
2024/02/10 02:25:50;;;;;;;11.67;5.93;;;;;;;9.21;100.00;93661.31;4976006;28;20658;-69
2024/02/10 02:28:16;;;;;;;11.93;5.80;;;;;;;9.16;100.00;93660.41;4976405;28;20673;-68
2024/02/10 02:30:43;;;;;;;11.97;5.60;;;;;;;9.20;100.00;93656.28;4974995;28;20307;-69
2024/02/10 02:33:10;;;;;;;12.87;5.70;;;;;;;9.09;100.00;93659.75;4976479;28;20249;-68
2024/02/10 02:35:38;;;;;;;12.03;5.83;;;;;;;9.15;100.00;93656.19;4975193;28;21089;-69
2024/02/10 02:38:05;;;;;;;10.87;4.90;;;;;;;9.14;100.00;93652.00;4975565;28;20207;-68
2024/02/10 02:40:33;;;;;;;10.53;5.20;;;;;;;9.30;100.00;93646.00;4976086;28;20231;-68
2024/02/10 02:43:02;;;;;;;11.10;5.77;;;;;;;9.16;100.00;93650.72;4975797;28;20210;-69
2024/02/10 02:45:29;;;;;;;8.90;4.77;;;;;;;9.00;100.00;93647.19;4975720;28;20286;-69
2024/02/10 02:47:59;;;;;;;13.43;5.93;;;;;;;9.00;100.00;93652.44;4975684;28;20203;-69
2024/02/10 02:50:26;;;;;;;10.03;5.40;;;;;;;9.04;100.00;93649.13;4974904;28;20276;-68
2024/02/10 02:52:53;;;;;;;9.43;4.53;;;;;;;9.07;100.00;93656.53;4975157;28;21151;-69
2024/02/10 02:55:20;;;;;;;13.50;6.00;;;;;;;9.02;100.00;93650.41;4976147;28;20207;-68
2024/02/10 02:57:47;;;;;;;9.37;5.43;;;;;;;9.20;100.00;93651.03;4976118;28;20683;-68
2024/02/10 03:00:15;;;;;;;9.50;5.63;;;;;;;9.14;100.00;93649.38;4974741;28;20231;-68
2024/02/10 03:02:42;;;;;;;15.70;5.80;;;;;;;8.85;100.00;93652.91;4975510;28;20200;-69
2024/02/10 03:05:10;;;;;;;15.27;5.43;;;;;;;8.96;100.00;93648.66;4975090;28;20257;-68
2024/02/10 03:07:40;;;;;;;13.37;6.33;;;;;;;9.09;100.00;93638.75;4975370;28;20207;-69
2024/02/10 03:10:08;;;;;;;13.73;5.80;;;;;;;9.15;100.00;93640.44;4974942;28;20364;-69
2024/02/10 03:12:34;;;;;;;12.63;5.57;;;;;;;9.15;100.00;93643.88;4975590;28;20214;-69
2024/02/10 03:15:04;;;;;;;14.53;5.70;;;;;;;9.18;100.00;93647.88;4975097;28;20238;-69
2024/02/10 03:17:31;;;;;;;17.73;6.50;;;;;;;9.16;100.00;93644.66;4974964;28;20264;-68
2024/02/10 03:19:58;;;;;;;15.87;6.93;;;;;;;9.11;100.00;93641.91;4974327;28;20943;-69
2024/02/10 03:22:24;;;;;;;21.03;6.67;;;;;;;9.05;100.00;93642.03;4974952;28;20208;-68
2024/02/10 03:24:53;;;;;;;20.60;6.60;;;;;;;8.99;100.00;93643.78;4975163;28;20203;-69
2024/02/10 03:27:20;;;;;;;15.77;7.43;;;;;;;9.09;100.00;93636.13;4975469;28;20230;-68
2024/02/10 03:29:46;;;;;;;17.47;6.80;;;;;;;9.14;100.00;93638.84;4974026;28;20225;-69
2024/02/10 03:32:15;;;;;;;15.63;7.10;;;;;;;9.34;100.00;93634.00;4974985;28;20207;-69
2024/02/10 03:34:41;;;;;;;13.53;6.03;;;;;;;9.26;100.00;93639.63;4974958;28;20203;-69
2024/02/10 03:37:09;;;;;;;18.30;6.93;;;;;;;9.25;100.00;93633.59;4974603;28;20211;-68
2024/02/10 03:39:36;;;;;;;13.87;7.20;;;;;;;9.34;100.00;93628.75;4974817;28;21150;-68
2024/02/10 03:42:04;;;;;;;17.40;7.53;;;;;;;9.31;100.00;93626.59;4975075;28;20278;-69
2024/02/10 03:44:30;;;;;;;15.57;6.27;;;;;;;9.32;100.00;93623.72;4975416;28;20214;-68
2024/02/10 03:47:00;;;;;;;16.63;7.53;;;;;;;9.31;100.00;93618.72;4974770;28;20207;-69
2024/02/10 03:49:28;;;;;;;13.30;6.93;;;;;;;9.28;100.00;93619.19;4974099;28;20912;-69
2024/02/10 03:51:55;;;;;;;15.07;6.97;;;;;;;9.19;100.00;93618.72;4976426;28;20223;-69
2024/02/10 03:54:22;;;;;;;15.40;7.00;;;;;;;9.22;100.00;93614.84;4974963;28;20211;-69
2024/02/10 03:56:49;;;;;;;15.03;6.67;;;;;;;9.14;100.00;93616.00;4974547;28;20626;-68
2024/02/10 03:59:16;;;;;;;18.90;7.20;;;;;;;8.93;100.00;93612.38;4974406;28;20298;-69
2024/02/10 04:01:43;;;;;;;13.53;7.27;;;;;;;9.00;100.00;93618.28;4974701;28;20234;-69
2024/02/10 04:04:10;;;;;;;17.27;6.87;;;;;;;9.05;100.00;93611.34;4973661;28;20579;-69
2024/02/10 04:06:39;;;;;;;13.43;6.30;;;;;;;9.01;100.00;93614.66;4974757;28;20370;-69
2024/02/10 04:09:06;;;;;;;14.03;6.47;;;;;;;9.08;100.00;93606.41;4974632;28;20206;-69
2024/02/10 04:11:34;;;;;;;12.87;6.27;;;;;;;9.16;100.00;93603.44;4973669;28;20223;-68
2024/02/10 04:14:00;;;;;;;19.93;7.00;;;;;;;9.09;100.00;93602.75;4975122;28;20211;-68
2024/02/10 04:16:27;;;;;;;13.27;6.73;;;;;;;9.05;100.00;93598.22;4974138;28;20218;-68
2024/02/10 04:18:54;;;;;;;14.03;6.53;;;;;;;9.00;100.00;93608.59;4974095;28;20206;-68
2024/02/10 04:21:21;;;;;;;12.37;6.60;;;;;;;9.14;100.00;93607.34;4973844;28;20262;-69
2024/02/10 04:23:51;;;;;;;13.17;6.67;;;;;;;9.74;100.00;93602.22;4975000;28;20208;-68
2024/02/10 04:26:18;;;;;;;14.17;6.17;;;;;;;9.73;100.00;93605.88;4974234;28;20203;-69
2024/02/10 04:28:44;;;;;;;14.13;6.40;;;;;;;9.90;100.00;93601.47;4974436;28;20210;-69
2024/02/10 04:31:13;;;;;;;13.83;6.50;;;;;;;9.80;100.00;93605.72;4977704;28;20270;-69
2024/02/10 04:33:42;;;;;;;13.30;6.50;;;;;;;9.89;100.00;93615.66;4977005;28;20203;-69
2024/02/10 04:36:11;;;;;;;14.47;7.20;;;;;;;10.03;100.00;93613.53;4977291;28;20207;-68
2024/02/10 04:38:37;;;;;;;20.30;7.43;;;;;;;10.06;100.00;93611.25;4977941;28;20245;-68
2024/02/10 04:41:05;;;;;;;19.50;8.03;;;;;;;10.22;100.00;93615.75;4976907;28;20244;-69
2024/02/10 04:43:32;;;;;;;14.87;6.70;;;;;;;10.09;100.00;93621.28;4977818;28;20554;-68
2024/02/10 04:45:58;;;;;;;19.00;7.00;;;;;;;10.10;100.00;93617.63;4978163;28;20237;-69
2024/02/10 04:48:25;;;;;;;20.20;7.53;;;;;;;10.11;100.00;93613.19;4977498;28;20207;-69
2024/02/10 04:50:56;;;;;;;16.97;7.07;;;;;;;10.13;100.00;93603.19;4976670;28;20249;-69
2024/02/10 04:53:25;;;;;;;20.50;7.43;;;;;;;10.07;100.00;93612.84;4977848;28;20242;-68
2024/02/10 04:55:51;;;;;;;15.07;7.00;;;;;;;9.48;100.00;93623.00;4976881;28;21078;-69
2024/02/10 04:58:21;;;;;;;11.70;6.00;;;;;;;9.67;100.00;93613.91;4977161;28;20222;-69
2024/02/10 05:00:48;;;;;;;17.57;7.27;;;;;;;9.53;100.00;93615.19;4977202;28;20227;-68
2024/02/10 05:03:14;;;;;;;14.77;6.93;;;;;;;9.50;100.00;93614.91;4977396;28;20199;-68
2024/02/10 05:05:41;;;;;;;14.73;7.07;;;;;;;9.42;100.00;93618.69;4976217;28;20214;-68
2024/02/10 05:08:12;;;;;;;17.70;7.33;;;;;;;9.42;100.00;93617.88;4977585;28;20212;-68
2024/02/10 05:10:40;;;;;;;13.67;6.77;;;;;;;9.47;100.00;93621.41;4976347;28;20255;-68
2024/02/10 05:13:07;;;;;;;17.90;6.67;;;;;;;9.43;100.00;93612.41;4977337;28;20219;-69
2024/02/10 05:15:35;;;;;;;11.30;6.10;;;;;;;9.55;100.00;93604.47;4977799;28;20204;-68
2024/02/10 05:18:04;;;;;;;10.33;5.87;;;;;;;9.35;100.00;93607.50;4977542;28;20215;-69
2024/02/10 05:20:31;;;;;;;13.57;6.30;;;;;;;9.38;100.00;93612.31;4976087;28;20227;-68
2024/02/10 05:22:57;;;;;;;14.47;6.53;;;;;;;9.28;100.00;93611.31;4977141;28;20211;-69
2024/02/10 05:25:27;;;;;;;14.57;7.27;;;;;;;9.32;100.00;93604.56;4977133;28;20207;-68
2024/02/10 05:27:54;;;;;;;13.43;6.67;;;;;;;9.26;100.00;93608.88;4976932;28;20646;-69
2024/02/10 05:30:24;;;;;;;13.53;6.50;;;;;;;9.31;100.00;93605.56;4976124;28;20780;-68
2024/02/10 05:32:52;;;;;;;13.47;6.83;;;;;;;9.34;100.00;93602.47;4976804;28;20580;-68
2024/02/10 05:35:20;;;;;;;16.20;7.87;;;;;;;9.26;100.00;93601.00;4975732;28;20204;-68
2024/02/10 05:37:48;;;;;;;17.13;7.80;;;;;;;9.30;100.00;93596.09;4976934;28;20227;-68
2024/02/10 05:40:14;;;;;;;15.80;6.73;;;;;;;9.22;100.00;93592.00;4976533;28;20216;-68
2024/02/10 05:42:42;;;;;;;11.73;6.30;;;;;;;9.19;100.00;93591.69;4976303;28;20230;-68
2024/02/10 05:45:10;;;;;;;15.27;6.57;;;;;;;9.29;100.00;93591.84;4976738;28;20210;-69
2024/02/10 05:47:36;;;;;;;12.73;6.23;;;;;;;9.22;100.00;93585.94;4977113;28;20231;-68
2024/02/10 05:50:08;;;;;;;13.30;6.47;;;;;;;9.29;100.00;93587.41;4975093;28;20227;-68
2024/02/10 05:52:38;;;;;;;13.23;6.37;;;;;;;9.17;100.00;93577.97;4976603;28;20636;-67
2024/02/10 05:55:06;;;;;;;12.97;6.17;;;;;;;9.20;100.00;93588.81;4976843;28;20207;-68
2024/02/10 05:57:33;;;;;;;12.50;6.27;;;;;;;9.12;100.00;93585.75;4976336;28;20204;-69
2024/02/10 06:00:00;;;;;;;13.90;6.20;;;;;;;9.12;100.00;93589.16;4975522;28;20261;-69
2024/02/10 06:02:26;;;;;;;10.67;5.50;;;;;;;9.04;100.00;93587.91;4977324;28;20227;-68
2024/02/10 06:04:53;;;;;;;14.57;6.13;;;;;;;8.97;100.00;93588.03;4976648;28;20217;-69
2024/02/10 06:07:22;;;;;;;10.57;5.30;;;;;;;9.14;100.00;93583.69;4975173;28;20207;-69
2024/02/10 06:09:49;;;;;;;9.90;5.80;;;;;;;9.01;100.00;93580.50;4975324;28;20210;-68
2024/02/10 06:12:15;;;;;;;10.70;5.83;;;;;;;9.00;100.00;93578.91;4977004;28;20203;-68
2024/02/10 06:14:43;;;;;;;9.63;5.10;;;;;;;8.99;100.00;93580.75;4975547;28;20200;-69
2024/02/10 06:17:11;;;;;;;15.17;5.90;;;;;;;8.86;100.00;93586.25;4975310;28;21456;-68
2024/02/10 06:19:38;;;;;;;13.37;6.30;;;;;;;8.94;100.00;93583.25;4975664;28;20211;-68
2024/02/10 06:22:06;;;;;;;11.90;6.00;;;;;;;9.03;100.00;93594.22;4975493;28;20235;-69
2024/02/10 06:24:35;;;;;;;10.07;5.13;;;;;;;9.08;100.00;93581.97;4975440;28;20260;-69
2024/02/10 06:27:01;;;;;;;9.40;4.50;;;;;;;8.93;100.00;93581.66;4975484;28;20758;-69
2024/02/10 06:29:29;;;;;;;8.43;5.10;;;;;;;8.89;100.00;93591.03;4975023;28;20223;-69
2024/02/10 06:31:57;;;;;;;8.83;5.07;;;;;;;8.84;100.00;93587.50;4975220;28;20284;-69
2024/02/10 06:34:25;;;;;;;12.57;5.20;;;;;;;8.87;100.00;93584.41;4975527;28;20215;-69
2024/02/10 06:36:52;;;;;;;10.00;4.90;;;;;;;8.85;100.00;93589.09;4975853;28;20697;-69
2024/02/10 06:39:19;;;;;;;14.47;6.07;;;;;;;8.82;100.00;93585.13;4975695;28;20585;-69
2024/02/10 06:41:47;;;;;;;17.37;6.40;;;;;;;8.97;100.00;93592.50;4975943;28;20717;-69
2024/02/10 06:44:14;;;;;;;11.43;6.53;;;;;;;8.83;100.00;93596.41;4976324;28;20210;-69
2024/02/10 06:46:40;;;;;;;12.63;5.93;;;;;;;8.81;100.00;93607.13;4975853;28;20203;-69
2024/02/10 06:49:07;;;;;;;9.93;5.23;;;;;;;8.73;100.00;93607.50;4975636;28;20211;-69
2024/02/10 06:51:34;;;;;;;11.93;5.83;;;;;;;8.78;100.00;93604.16;4974635;28;20223;-68
2024/02/10 06:54:02;;;;;;;12.60;5.80;;;;;;;8.82;100.00;93600.88;4975858;28;20207;-69
2024/02/10 06:56:29;;;;;;;10.70;5.60;;;;;;;8.92;100.00;93606.31;4975987;28;20214;-69
2024/02/10 06:58:59;;;;;;;11.73;5.87;;;;;;;9.08;100.00;93600.38;4975828;28;20207;-69
2024/02/10 07:01:28;;;;;;;18.10;5.80;;;;;;;9.02;100.00;93596.03;4975234;28;20287;-69
2024/02/10 07:03:54;;;;;;;16.13;6.47;;;;;;;9.01;100.00;93594.44;4975665;28;20207;-70
2024/02/10 07:06:27;;;;;;;11.63;5.33;;;;;;;9.29;100.00;93597.94;4975331;28;20218;-69
2024/02/10 07:08:53;;;;;;;13.27;6.93;;;;;;;9.11;100.00;93605.16;4975859;28;20230;-69
2024/02/10 07:11:20;;;;;;;10.63;5.60;;;;;;;9.07;100.00;93604.03;4975244;28;20219;-69
2024/02/10 07:13:46;;;;;;;12.23;5.80;;;;;;;9.14;100.00;93600.25;4975803;28;20214;-69
2024/02/10 07:16:14;;;;;;;11.73;5.40;;;;;;;9.30;100.00;93588.22;4975279;28;20207;-69
2024/02/10 07:18:41;;;;;;;10.97;5.80;;;;;;;9.09;100.00;93591.47;4976165;28;20200;-69
2024/02/10 07:21:08;;;;;;;11.43;5.57;;;;;;;9.12;100.00;93591.78;4974582;28;20235;-69
2024/02/10 07:23:34;;;;;;;18.00;5.30;;;;;;;9.09;100.00;93586.22;4975110;28;20212;-69
2024/02/10 07:26:04;;;;;;;9.53;5.27;;;;;;;9.16;100.00;93585.06;4975813;28;20925;-69
2024/02/10 07:28:31;;;;;;;10.30;5.50;;;;;;;8.96;100.00;93591.72;4976469;28;20268;-69
2024/02/10 07:30:57;;;;;;;13.57;6.50;;;;;;;9.10;100.00;93593.84;4974151;28;20235;-69
2024/02/10 07:33:25;;;;;;;10.53;5.50;;;;;;;9.33;100.00;93585.91;4974091;28;20208;-69
2024/02/10 07:35:52;;;;;;;16.17;6.17;;;;;;;9.24;100.00;93599.63;4975018;28;21036;-69
2024/02/10 07:38:20;;;;;;;11.17;5.80;;;;;;;9.26;100.00;93597.59;4975090;28;20217;-69
2024/02/10 07:40:47;;;;;;;10.97;5.23;;;;;;;9.40;100.00;93593.66;4974316;28;20226;-69
2024/02/10 07:43:16;;;;;;;13.33;5.67;;;;;;;9.42;100.00;93599.47;4974895;28;21027;-69
2024/02/10 07:45:42;;;;;;;11.20;5.57;;;;;;;9.41;100.00;93590.00;4974785;28;20203;-69
2024/02/10 07:48:09;;;;;;;10.53;5.37;;;;;;;9.51;100.00;93591.00;4974673;28;20226;-69
2024/02/10 07:50:40;;;;;;;10.13;5.37;;;;;;;9.62;100.00;93594.63;4973996;28;20235;-69
2024/02/10 07:53:09;;;;;;;12.67;6.03;;;;;;;9.52;100.00;93602.31;4975088;28;20203;-69
2024/02/10 07:55:36;;;;;;;10.23;5.37;;;;;;;9.24;100.00;93595.19;4974726;28;20265;-69
2024/02/10 07:58:04;;;;;;;10.93;5.30;;;;;;;9.42;100.00;93581.06;4975439;28;20206;-69
2024/02/10 08:00:32;;;;;;;12.43;5.80;;;;;;;9.48;100.00;93583.59;4974107;28;20255;-69
2024/02/10 08:03:02;;;;;;;11.40;5.73;;;;;;;9.57;100.00;93590.06;4975110;28;20238;-69
2024/02/10 08:05:28;;;;;;;11.17;5.30;;;;;;;9.38;100.00;93587.84;4977383;28;20214;-69
2024/02/10 08:08:00;;;;;;;8.93;5.30;;;;;;;9.59;100.00;93588.00;4978765;28;20207;-69
2024/02/10 08:10:26;;;;;;;12.27;6.03;;;;;;;9.59;100.00;93589.84;4977209;28;20241;-69
2024/02/10 08:12:53;;;;;;;12.20;5.40;;;;;;;9.51;100.00;93591.00;4978053;28;20203;-69
2024/02/10 08:15:22;;;;;;;10.43;5.60;;;;;;;9.58;100.00;93577.72;4978266;28;20272;-69
2024/02/10 08:17:49;;;;;;;10.77;5.77;;;;;;;9.50;100.00;93580.72;4977701;28;20210;-69
2024/02/10 08:20:15;;;;;;;13.33;6.10;;;;;;;9.54;100.00;93574.75;4977226;28;20230;-69
2024/02/10 08:22:42;;;;;;;12.70;5.57;;;;;;;9.74;100.00;93581.19;4978060;28;20231;-69
2024/02/10 08:25:10;;;;;;;13.10;5.37;;;;;;;9.82;100.00;93578.16;4978091;28;20219;-69
2024/02/10 08:27:39;;;;;;;12.13;6.57;;;;;;;9.63;100.00;93586.47;4977498;28;20216;-69
2024/02/10 08:30:18;;;;;;;10.40;5.63;;;;;;;9.91;100.00;93591.75;4977346;28;21067;-69
2024/02/10 08:32:44;;;;;;;12.77;6.10;;;;;;;9.87;100.00;93596.66;4977430;28;20214;-69
2024/02/10 08:35:11;;;;;;;10.80;6.40;;;;;;;9.81;100.00;93597.63;4977143;28;20215;-69
2024/02/10 08:37:38;;;;;;;11.90;5.43;;;;;;;9.90;100.00;93596.22;4978224;28;20218;-69
2024/02/10 08:40:09;;;;;;;9.60;5.10;;;;;;;9.98;100.00;93598.47;4976615;28;20231;-69
2024/02/10 08:42:37;;;;;;;11.00;5.97;;;;;;;9.92;100.00;93594.13;4977601;28;20254;-69
2024/02/10 08:45:05;;;;;;;11.40;5.53;;;;;;;9.87;100.00;93598.50;4977340;28;20243;-69
2024/02/10 08:47:31;;;;;;;10.50;5.60;;;;;;;9.81;100.00;93602.88;4978146;28;20945;-69
2024/02/10 08:49:58;;;;;;;11.30;6.33;;;;;;;9.75;100.00;93603.03;4976659;28;20223;-69
2024/02/10 08:52:24;;;;;;;9.80;5.57;;;;;;;9.80;100.00;93611.81;4977561;28;21419;-69
2024/02/10 08:54:50;;;;;;;11.40;6.00;;;;;;;9.89;100.00;93614.84;4977650;28;20278;-69
2024/02/10 08:57:16;;;;;;;11.83;5.23;;;;;;;9.83;100.00;93621.06;4977155;28;20214;-69
2024/02/10 08:59:45;;;;;;;12.50;6.07;;;;;;;9.73;100.00;93619.00;4977095;28;20213;-69
2024/02/10 09:02:12;;;;;;;10.97;6.07;;;;;;;9.71;100.00;93621.09;4977242;28;20288;-69
2024/02/10 09:04:39;;;;;;;12.90;5.53;;;;;;;9.74;100.00;93619.84;4976600;28;20803;-69
2024/02/10 09:07:06;;;;;;;10.23;5.80;;;;;;;9.66;100.00;93614.13;4977041;28;20211;-69
2024/02/10 09:09:33;;;;;;;11.27;6.20;;;;;;;9.73;100.00;93613.75;4977099;28;20211;-69
2024/02/10 09:12:00;;;;;;;9.27;5.33;;;;;;;9.48;100.00;93622.19;4976504;28;20235;-69
2024/02/10 09:14:26;;;;;;;9.90;5.67;;;;;;;9.48;100.00;93616.94;4975958;28;20208;-69
2024/02/10 09:16:54;;;;;;;12.60;6.27;;;;;;;9.79;100.00;93615.47;4977205;28;20203;-69
2024/02/10 09:19:21;;;;;;;10.87;5.40;;;;;;;9.60;100.00;93612.44;4976386;28;20211;-69
2024/02/10 09:21:57;;;;;;;10.47;5.77;;;;;;;9.53;100.00;93615.19;4976696;28;20305;-69
2024/02/10 09:24:25;;;;;;;11.73;5.97;;;;;;;9.65;100.00;93612.53;4975329;28;20303;-69
2024/02/10 09:26:53;;;;;;;12.13;5.27;;;;;;;9.84;100.00;93610.28;4975635;28;20685;-69
2024/02/10 09:29:20;;;;;;;9.43;4.87;;;;;;;9.76;100.00;93605.41;4974550;28;20219;-69
2024/02/10 09:31:46;;;;;;;9.00;5.07;;;;;;;9.70;100.00;93611.59;4977236;28;20269;-69
2024/02/10 09:34:15;;;;;;;9.27;4.80;;;;;;;10.07;100.00;93597.06;4976795;28;20241;-69
2024/02/10 09:36:43;;;;;;;9.50;5.57;;;;;;;9.65;100.00;93594.13;4975960;28;20230;-69
2024/02/10 09:39:09;;;;;;;12.67;5.53;;;;;;;9.50;100.00;93591.25;4976799;28;20318;-69
2024/02/10 09:41:36;;;;;;;10.03;5.53;;;;;;;9.77;100.00;93587.81;4977079;28;20245;-69
2024/02/10 09:44:03;;;;;;;10.30;5.47;;;;;;;9.52;100.00;93589.16;4976639;28;20222;-69
2024/02/10 09:46:36;;;;;;;11.37;5.83;;;;;;;9.80;100.00;93580.25;4976551;28;20696;-69
2024/02/10 09:49:06;;;;;;;9.50;4.97;;;;;;;9.77;100.00;93580.69;4977955;28;20657;-69
2024/02/10 09:51:41;;;;;;;11.43;5.70;;;;;;;9.64;100.00;93579.41;4975844;28;20227;-69
2024/02/10 09:54:08;;;;;;;11.17;5.93;;;;;;;9.81;100.00;93586.28;4976183;28;20770;-69
2024/02/10 09:56:35;;;;;;;11.97;5.30;;;;;;;9.75;100.00;93582.78;4976093;28;20207;-69
2024/02/10 09:59:03;;;;;;;10.47;5.30;;;;;;;9.98;100.00;93581.88;4976503;28;20210;-69
2024/02/10 10:01:32;;;;;;;11.37;6.13;;;;;;;9.89;100.00;93584.09;4975413;28;20238;-69
2024/02/10 10:03:58;;;;;;;12.90;5.40;;;;;;;10.03;100.00;93584.59;4976091;28;20233;-69
2024/02/10 10:06:26;;;;;;;11.40;5.67;;;;;;;10.26;100.00;93574.75;4976069;28;20214;-69
2024/02/10 10:08:54;;;;;;;13.80;5.97;;;;;;;10.20;100.00;93574.91;4976593;28;20211;-69
2024/02/10 10:11:21;;;;;;;9.77;5.10;;;;;;;10.08;100.00;93568.91;4975020;28;20259;-69
2024/02/10 10:13:48;;;;;;;10.97;5.87;;;;;;;10.02;100.00;93573.28;4976391;28;20217;-70
2024/02/10 10:16:15;;;;;;;10.73;5.10;;;;;;;9.84;100.00;93560.31;4976394;28;20210;-69
2024/02/10 10:18:42;;;;;;;13.23;6.07;;;;;;;9.83;100.00;93550.06;4976317;28;20276;-69
2024/02/10 10:21:10;;;;;;;10.90;4.97;;;;;;;9.87;100.00;93545.91;4975674;28;20234;-69
2024/02/10 10:23:37;;;;;;;9.57;5.30;;;;;;;9.98;100.00;93537.97;4975742;28;20227;-69
2024/02/10 10:26:06;;;;;;;11.93;5.43;;;;;;;10.16;100.00;93537.75;4976227;28;20214;-69
2024/02/10 10:28:32;;;;;;;10.97;5.27;;;;;;;10.07;100.00;93533.91;4976253;28;20661;-69
2024/02/10 10:31:00;;;;;;;13.10;6.00;;;;;;;10.02;100.00;93533.84;4975437;28;20459;-70
2024/02/10 10:33:28;;;;;;;14.00;5.83;;;;;;;9.97;100.00;93525.84;4975518;28;20207;-70
2024/02/10 10:35:55;;;;;;;16.17;5.93;;;;;;;9.86;100.00;93526.72;4975855;28;20211;-69
2024/02/10 10:38:22;;;;;;;13.67;5.67;;;;;;;9.76;100.00;93508.13;4975541;28;20276;-69
2024/02/10 10:40:51;;;;;;;11.47;5.50;;;;;;;9.79;100.00;93512.91;4975176;28;20227;-69
2024/02/10 10:43:21;;;;;;;15.83;6.33;;;;;;;9.96;100.00;93511.09;4976091;28;20231;-69
2024/02/10 10:45:48;;;;;;;10.57;5.77;;;;;;;9.64;100.00;93497.94;4975599;28;20207;-69
2024/02/10 10:48:15;;;;;;;17.40;6.20;;;;;;;9.45;100.00;93493.91;4975700;28;20211;-69
2024/02/10 10:50:41;;;;;;;13.47;6.27;;;;;;;9.53;100.00;93488.25;4975020;28;20739;-69
2024/02/10 10:53:10;;;;;;;13.77;5.93;;;;;;;9.89;100.00;93484.16;4975777;28;20199;-69
2024/02/10 10:55:42;;;;;;;11.07;5.43;;;;;;;9.78;100.00;93471.09;4975651;28;20243;-69
2024/02/10 10:58:12;;;;;;;18.47;6.93;;;;;;;9.83;100.00;93463.28;4976526;28;21195;-69
2024/02/10 11:00:43;;;;;;;15.90;7.33;;;;;;;9.85;100.00;93446.22;4974419;28;20713;-69
2024/02/10 11:03:10;;;;;;;23.07;6.97;;;;;;;9.93;100.00;93437.94;4974968;28;20223;-69
2024/02/10 11:05:41;;;;;;;13.07;6.80;;;;;;;10.32;100.00;93434.31;4974745;28;20685;-69
2024/02/10 11:08:13;;;;;;;19.20;7.27;;;;;;;10.09;100.00;93437.13;4976314;28;20207;-69
2024/02/10 11:10:41;;;;;;;14.33;6.40;;;;;;;10.20;100.00;93436.25;4974464;28;20227;-69
2024/02/10 11:13:09;;;;;;;12.77;6.23;;;;;;;10.12;100.00;93431.41;4975461;28;20214;-69
2024/02/10 11:15:40;;;;;;;13.17;6.60;;;;;;;9.99;100.00;93437.00;4975739;28;20203;-69
2024/02/10 11:18:14;;;;;;;12.17;6.27;;;;;;;10.25;100.00;93436.31;4974687;28;20352;-69
2024/02/10 11:20:41;;;;;;;16.00;6.97;;;;;;;10.23;100.00;93446.28;4975943;28;20246;-69
2024/02/10 11:23:13;;;;;;;13.67;6.53;;;;;;;10.33;100.00;93439.34;4974616;28;20227;-69
2024/02/10 11:25:40;;;;;;;14.00;6.20;;;;;;;9.81;100.00;93434.59;4975526;28;20199;-70